createdAt,value
2022-09-28T00:02:28.853Z,10.03
2022-09-28T00:07:31.313Z,8.90
2022-09-28T00:12:33.814Z,8.97
2022-09-28T00:17:36.495Z,9.37
2022-09-28T00:22:39.138Z,9.37
2022-09-28T00:27:41.483Z,10.40
2022-09-28T00:32:43.903Z,11.37
2022-09-28T00:37:48.911Z,10.67
2022-09-28T00:42:51.454Z,11.27
2022-09-28T00:47:58.089Z,10.57
2022-09-28T00:53:21.007Z,9.13
2022-09-28T00:58:30.188Z,8.77
2022-09-28T01:03:33.736Z,8.60
2022-09-28T01:08:37.309Z,8.17
2022-09-28T01:13:41.247Z,7.47
2022-09-28T01:19:02.375Z,6.93
2022-09-28T01:24:17.487Z,6.90
2022-09-28T01:29:24.946Z,5.97
2022-09-28T01:34:35.857Z,6.47
2022-09-28T01:39:44.159Z,5.70
2022-09-28T01:44:51.906Z,5.37
2022-09-28T01:50:07.307Z,5.63
2022-09-28T01:55:31.241Z,4.97
2022-09-28T02:00:36.105Z,5.77
2022-09-28T02:05:48.945Z,5.53
2022-09-28T02:11:02.158Z,5.63
2022-09-28T02:16:31.339Z,5.47
2022-09-28T02:21:59.295Z,5.53
2022-09-28T02:27:14.644Z,5.83
2022-09-28T02:32:20.179Z,7.03
2022-09-28T02:37:22.710Z,13.40
2022-09-28T02:42:29.454Z,19.50
2022-09-28T02:47:54.977Z,20.03
2022-09-28T02:53:12.853Z,18.37
2022-09-28T02:58:15.127Z,13.07
2022-09-28T03:03:52.734Z,10.73
2022-09-28T03:09:03.277Z,11.10
2022-09-28T03:14:09.978Z,9.10
2022-09-28T03:19:28.031Z,7.10
2022-09-28T03:24:30.482Z,12.63
2022-09-28T03:29:34.460Z,11.93
2022-09-28T03:34:40.404Z,7.67
2022-09-28T03:39:42.906Z,8.27
2022-09-28T03:44:45.286Z,8.80
2022-09-28T03:49:48.126Z,8.37
2022-09-28T03:54:50.515Z,8.20
2022-09-28T03:59:52.834Z,8.77
2022-09-28T04:04:55.420Z,6.20
2022-09-28T04:09:57.850Z,6.63
2022-09-28T04:15:00.442Z,9.20
2022-09-28T04:20:03.777Z,8.57
2022-09-28T04:25:19.308Z,8.93
2022-09-28T04:30:22.059Z,10.70
2022-09-28T04:35:24.524Z,13.80
2022-09-28T04:40:27.063Z,18.87
2022-09-28T04:45:29.785Z,9.40
2022-09-28T04:50:38.839Z,7.93
2022-09-28T04:55:42.185Z,8.07
2022-09-28T05:00:44.698Z,6.60
2022-09-28T05:06:10.322Z,6.27
2022-09-28T05:11:19.898Z,9.17
2022-09-28T05:16:22.344Z,9.83
2022-09-28T05:21:46.060Z,28.03
2022-09-28T05:26:48.534Z,24.60
2022-09-28T05:31:50.974Z,21.27
2022-09-28T05:37:02.414Z,19.40
2022-09-28T05:42:07.495Z,19.50
2022-09-28T05:47:10.462Z,16.97
2022-09-28T05:52:13.124Z,14.20
2022-09-28T05:57:15.854Z,12.70
2022-09-28T06:02:18.505Z,12.87
2022-09-28T06:07:22.002Z,12.87
2022-09-28T06:12:24.939Z,13.13
2022-09-28T06:17:30.696Z,15.73
2022-09-28T06:22:54.214Z,17.53
2022-09-28T06:28:05.338Z,12.13
2022-09-28T06:33:10.903Z,10.30
2022-09-28T06:38:13.612Z,8.17
2022-09-28T06:43:16.173Z,7.87
2022-09-28T06:48:38.150Z,8.13
2022-09-28T06:53:43.999Z,7.50
2022-09-28T06:59:06.612Z,7.80
2022-09-28T07:04:10.521Z,7.50
2022-09-28T07:09:33.559Z,6.53
2022-09-28T07:14:48.385Z,8.67
2022-09-28T07:19:52.749Z,6.07
2022-09-28T07:24:55.499Z,5.83
2022-09-28T07:30:16.551Z,4.67
2022-09-28T07:35:39.412Z,5.13
2022-09-28T07:41:00.388Z,4.80
2022-09-28T07:46:02.981Z,5.00
2022-09-28T07:51:05.795Z,4.80
2022-09-28T07:56:12.008Z,6.60
2022-09-28T08:01:31.017Z,5.47
2022-09-28T08:06:34.525Z,5.57
2022-09-28T08:11:38.756Z,5.67
2022-09-28T08:16:58.384Z,4.27
2022-09-28T08:22:12.587Z,4.50
2022-09-28T08:27:17.266Z,4.60
2022-09-28T08:32:20.051Z,5.20
2022-09-28T08:37:57.282Z,4.80
2022-09-28T08:44:01.285Z,3.87
2022-09-28T08:49:25.542Z,3.90
2022-09-28T08:54:58.971Z,3.93
2022-09-28T09:00:10.963Z,4.73
2022-09-28T09:05:20.836Z,4.80
2022-09-28T09:11:01.238Z,5.60
2022-09-28T09:16:32.252Z,5.10
2022-09-28T09:22:31.757Z,4.47
2022-09-28T09:27:55.830Z,5.63
2022-09-28T09:33:39.624Z,5.07
2022-09-28T09:39:18.279Z,4.60
2022-09-28T09:44:53.870Z,4.10
2022-09-28T09:50:25.334Z,3.90
2022-09-28T09:55:36.460Z,3.40
2022-09-28T10:00:56.259Z,4.37
2022-09-28T10:06:30.225Z,3.53
2022-09-28T10:11:49.977Z,4.10
2022-09-28T10:16:55.638Z,4.30
2022-09-28T10:22:20.791Z,3.30
2022-09-28T10:27:33.735Z,4.30
2022-09-28T10:32:45.165Z,4.17
2022-09-28T10:38:03.345Z,4.40
2022-09-28T10:43:38.704Z,4.67
2022-09-28T10:48:47.044Z,4.30
2022-09-28T10:54:17.108Z,3.20
2022-09-28T10:59:29.869Z,4.20
2022-09-28T11:05:01.950Z,3.30
2022-09-28T11:10:23.779Z,3.50
2022-09-28T11:15:31.378Z,4.00
2022-09-28T11:20:36.005Z,3.73
2022-09-28T11:25:41.262Z,3.23
2022-09-28T11:30:49.993Z,2.90
2022-09-28T11:36:41.676Z,3.10
2022-09-28T11:41:53.224Z,3.87
2022-09-28T11:47:23.820Z,3.10
2022-09-28T11:52:54.452Z,4.17
2022-09-28T11:58:22.485Z,4.13
2022-09-28T12:03:40.948Z,3.00
2022-09-28T12:08:49.468Z,3.20
2022-09-28T12:14:34.680Z,2.60
2022-09-28T12:19:46.646Z,3.20
2022-09-28T12:24:52.826Z,4.57
2022-09-28T12:29:55.152Z,4.33
2022-09-28T12:34:57.962Z,3.13
2022-09-28T12:40:18.442Z,14.40
2022-09-28T12:46:09.727Z,7.30
2022-09-28T12:51:14.737Z,4.90
2022-09-28T12:56:57.847Z,3.90
2022-09-28T13:02:25.027Z,9.33
2022-09-28T13:07:49.913Z,8.83
2022-09-28T13:13:05.276Z,11.77
2022-09-28T13:18:07.555Z,11.30
2022-09-28T13:23:22.365Z,8.30
2022-09-28T13:28:27.369Z,14.00
2022-09-28T13:33:35.765Z,7.73
2022-09-28T13:38:47.512Z,14.87
2022-09-28T13:44:12.374Z,15.80
2022-09-28T13:49:37.254Z,32.60
2022-09-28T13:55:05.943Z,51.80
2022-09-28T14:00:11.614Z,34.97
2022-09-28T14:05:22.936Z,7.00
2022-09-28T14:10:50.840Z,10.73
2022-09-28T14:15:53.921Z,8.33
2022-09-28T14:21:25.699Z,48.03
2022-09-28T14:26:55.810Z,17.03
2022-09-28T14:32:04.704Z,9.40
2022-09-28T14:37:43.967Z,7.23
2022-09-28T14:43:24.588Z,11.37
2022-09-28T14:49:25.584Z,14.80
2022-09-28T14:54:46.981Z,7.17
2022-09-28T14:59:49.587Z,17.67
2022-09-28T15:05:02.560Z,37.43
2022-09-28T15:10:35.066Z,17.10
2022-09-28T15:15:41.131Z,16.20
2022-09-28T15:20:49.025Z,23.47
2022-09-28T15:25:55.308Z,20.87
2022-09-28T15:31:03.354Z,21.87
2022-09-28T15:36:07.394Z,40.60
2022-09-28T15:41:11.207Z,15.97
2022-09-28T15:46:21.174Z,17.47
2022-09-28T15:51:24.611Z,33.03
2022-09-28T15:56:28.261Z,26.37
2022-09-28T16:01:42.236Z,47.00
2022-09-28T16:06:44.663Z,37.57
2022-09-28T16:11:49.835Z,35.53
2022-09-28T16:16:53.269Z,14.37
2022-09-28T16:21:58.166Z,31.17
2022-09-28T16:27:07.175Z,26.27
2022-09-28T16:32:34.048Z,34.07
2022-09-28T16:37:36.849Z,20.63
2022-09-28T16:42:48.067Z,27.47
2022-09-28T16:47:54.980Z,48.77
2022-09-28T16:53:19.747Z,85.33
2022-09-28T16:58:22.647Z,29.90
2022-09-28T17:03:26.024Z,22.57
2022-09-28T17:08:28.529Z,19.13
2022-09-28T17:13:34.631Z,37.47
2022-09-28T17:18:39.244Z,75.90
2022-09-28T17:23:42.890Z,55.07
2022-09-28T17:28:45.283Z,53.77
2022-09-28T17:33:47.720Z,55.80
2022-09-28T17:38:51.785Z,41.83
2022-09-28T17:43:54.120Z,40.70
2022-09-28T17:48:59.568Z,38.77
2022-09-28T17:54:02.626Z,20.03
2022-09-28T17:59:07.430Z,18.00
2022-09-28T18:04:33.321Z,19.00
2022-09-28T18:09:36.386Z,35.87
2022-09-28T18:14:39.949Z,31.33
2022-09-28T18:19:42.309Z,30.53
2022-09-28T18:24:44.988Z,21.43
2022-09-28T18:29:47.276Z,16.47
2022-09-28T18:34:49.683Z,18.07
2022-09-28T18:39:52.449Z,21.03
2022-09-28T18:44:54.795Z,32.03
2022-09-28T18:49:58.592Z,24.87
2022-09-28T18:55:00.898Z,29.03
2022-09-28T19:00:06.842Z,31.20
2022-09-28T19:05:09.718Z,29.03
2022-09-28T19:10:12.122Z,14.87
2022-09-28T19:15:14.571Z,13.67
2022-09-28T19:20:17.335Z,11.70
2022-09-28T19:25:19.944Z,13.53
2022-09-28T19:30:22.321Z,10.50
2022-09-28T19:35:24.637Z,11.47
2022-09-28T19:40:27.025Z,10.80
2022-09-28T19:45:29.473Z,14.90
2022-09-28T19:50:32.317Z,32.27
2022-09-28T19:55:36.308Z,18.03
2022-09-28T20:00:38.689Z,16.57
2022-09-28T20:05:42.432Z,24.50
2022-09-28T20:10:52.487Z,23.83
2022-09-28T20:15:56.449Z,37.73
2022-09-28T20:21:06.548Z,23.47
2022-09-28T20:26:12.418Z,13.67
2022-09-28T20:31:17.974Z,13.63
2022-09-28T20:36:25.307Z,32.33
2022-09-28T20:41:28.213Z,27.97
2022-09-28T20:46:30.713Z,20.90
2022-09-28T20:51:33.393Z,19.77
2022-09-28T20:56:39.296Z,17.50
2022-09-28T21:01:41.834Z,13.00
2022-09-28T21:06:44.476Z,19.33
2022-09-28T21:11:48.148Z,60.27
2022-09-28T21:16:59.556Z,36.47
2022-09-28T21:22:01.850Z,29.10
2022-09-28T21:27:04.731Z,20.20
2022-09-28T21:32:08.247Z,16.80
2022-09-28T21:37:10.629Z,15.10
2022-09-28T21:42:12.898Z,15.73
2022-09-28T21:47:15.273Z,15.27
2022-09-28T21:52:18.168Z,12.57
2022-09-28T21:57:20.464Z,13.13
2022-09-28T22:02:23.215Z,13.57
2022-09-28T22:07:25.715Z,13.63
2022-09-28T22:12:29.813Z,13.87
2022-09-28T22:17:32.265Z,12.33
2022-09-28T22:22:34.952Z,12.23
2022-09-28T22:27:39.037Z,12.27
2022-09-28T22:32:41.394Z,10.90
2022-09-28T22:37:43.654Z,11.13
2022-09-28T22:42:46.016Z,12.00
2022-09-28T22:47:48.343Z,12.77
2022-09-28T22:52:51.104Z,14.23
2022-09-28T22:57:53.554Z,13.93
2022-09-28T23:02:55.874Z,14.37
2022-09-28T23:07:58.272Z,14.10
2022-09-28T23:13:00.638Z,14.43
2022-09-28T23:18:02.956Z,14.80
2022-09-28T23:23:05.471Z,13.63
2022-09-28T23:28:08.112Z,14.33
2022-09-28T23:33:15.230Z,15.07
2022-09-28T23:38:18.311Z,14.30
2022-09-28T23:43:20.888Z,12.83
2022-09-28T23:48:23.252Z,14.13
2022-09-28T23:53:25.821Z,13.00
2022-09-28T23:58:28.258Z,12.53
